createdAt,value
2019-03-27T00:00:39.141Z,100469.67
2019-03-27T00:03:07.525Z,100464.98
2019-03-27T00:05:35.914Z,100471.52
2019-03-27T00:08:04.370Z,100463.11
2019-03-27T00:10:32.773Z,100460.08
2019-03-27T00:13:01.155Z,100468.47
2019-03-27T00:15:29.561Z,100459.73
2019-03-27T00:17:57.962Z,100461.93
2019-03-27T00:20:26.342Z,100460.61
2019-03-27T00:22:54.728Z,100454.41
2019-03-27T00:25:23.113Z,100455.32
2019-03-27T00:27:51.489Z,100452.22
2019-03-27T00:30:19.947Z,100456.19
2019-03-27T00:32:48.334Z,100454.00
2019-03-27T00:35:16.712Z,100458.91
2019-03-27T00:37:45.115Z,100462.88
2019-03-27T00:40:13.584Z,100462.00
2019-03-27T00:42:41.977Z,100466.42
2019-03-27T00:45:10.693Z,100458.64
2019-03-27T00:47:39.091Z,100461.73
2019-03-27T00:50:10.569Z,100459.09
2019-03-27T00:52:39.402Z,100455.20
2019-03-27T00:55:08.778Z,100460.42
2019-03-27T00:57:37.355Z,100456.53
2019-03-27T01:00:08.776Z,100459.66
2019-03-27T01:02:37.172Z,100461.43
2019-03-27T01:05:06.584Z,100461.88
2019-03-27T01:07:34.994Z,100468.49
2019-03-27T01:10:03.440Z,100464.22
2019-03-27T01:12:31.832Z,100467.66
2019-03-27T01:15:00.327Z,100466.79
2019-03-27T01:17:28.678Z,100465.47
2019-03-27T01:19:57.057Z,100458.45
2019-03-27T01:22:25.454Z,100452.92
2019-03-27T01:24:53.827Z,100458.14
2019-03-27T01:27:22.215Z,100452.52
2019-03-27T01:29:50.641Z,100453.38
2019-03-27T01:32:19.049Z,100451.68
2019-03-27T01:34:47.430Z,100445.53
2019-03-27T01:37:15.826Z,100447.30
2019-03-27T01:39:44.203Z,100445.14
2019-03-27T01:42:12.592Z,100446.39
2019-03-27T01:44:40.986Z,100448.70
2019-03-27T01:47:09.372Z,100446.96
2019-03-27T01:49:37.778Z,100445.72
2019-03-27T01:52:08.036Z,100446.09
2019-03-27T01:54:36.291Z,100446.96
2019-03-27T01:57:04.680Z,100443.45
2019-03-27T01:59:33.081Z,100453.64
2019-03-27T02:02:01.536Z,100448.42
2019-03-27T02:04:29.998Z,100437.86
2019-03-27T02:06:58.377Z,100440.09
2019-03-27T02:09:26.765Z,100441.41
2019-03-27T02:11:55.145Z,100442.88
2019-03-27T02:14:23.593Z,100443.25
2019-03-27T02:16:51.976Z,100446.91
2019-03-27T02:19:20.368Z,100452.19
2019-03-27T02:21:48.748Z,100449.55
2019-03-27T02:24:17.402Z,100453.06
2019-03-27T02:26:45.784Z,100457.03
2019-03-27T02:29:14.173Z,100457.03
2019-03-27T02:31:42.555Z,100456.16
2019-03-27T02:34:10.949Z,100455.81
2019-03-27T02:36:39.331Z,100458.88
2019-03-27T02:39:07.720Z,100455.44
2019-03-27T02:41:36.099Z,100453.70
2019-03-27T02:44:04.500Z,100447.66
2019-03-27T02:46:32.876Z,100453.39
2019-03-27T02:49:01.269Z,100460.86
2019-03-27T02:51:29.639Z,100449.42
2019-03-27T02:53:58.032Z,100447.73
2019-03-27T02:56:26.411Z,100442.89
2019-03-27T02:58:54.812Z,100444.28
2019-03-27T03:01:23.182Z,100444.28
2019-03-27T03:03:51.572Z,100447.00
2019-03-27T03:06:19.945Z,100448.77
2019-03-27T03:08:48.339Z,100457.56
2019-03-27T03:11:16.719Z,100457.16
2019-03-27T03:13:45.100Z,100451.48
2019-03-27T03:16:13.485Z,100450.48
2019-03-27T03:18:41.946Z,100451.48
2019-03-27T03:21:10.331Z,100451.07
2019-03-27T03:23:38.732Z,100444.54
2019-03-27T03:26:07.122Z,100443.74
2019-03-27T03:28:35.499Z,100442.31
2019-03-27T03:31:03.933Z,100446.73
2019-03-27T03:33:32.344Z,100443.70
2019-03-27T03:36:00.734Z,100446.80
2019-03-27T03:38:29.184Z,100445.93
2019-03-27T03:40:57.583Z,100449.97
2019-03-27T03:43:25.960Z,100448.34
2019-03-27T03:45:54.350Z,100450.42
2019-03-27T03:48:22.835Z,100451.81
2019-03-27T03:50:54.560Z,100451.36
2019-03-27T03:53:23.331Z,100450.03
2019-03-27T03:55:52.739Z,100449.23
2019-03-27T03:58:22.256Z,100453.62
2019-03-27T04:00:51.388Z,100465.09
2019-03-27T04:03:20.035Z,100461.99
2019-03-27T04:05:48.433Z,100459.34
2019-03-27T04:08:16.811Z,100458.94
2019-03-27T04:10:45.374Z,100460.74
2019-03-27T04:13:13.803Z,100468.66
2019-03-27T04:15:42.154Z,100465.23
2019-03-27T04:18:10.532Z,100464.36
2019-03-27T04:20:39.034Z,100468.80
2019-03-27T04:23:07.422Z,100471.83
2019-03-27T04:26:06.407Z,100469.26
2019-03-27T04:28:05.902Z,100467.48
2019-03-27T04:30:34.292Z,100478.57
2019-03-27T04:33:02.672Z,100481.28
2019-03-27T04:35:31.064Z,100487.81
2019-03-27T04:37:59.436Z,100487.33
2019-03-27T04:40:27.816Z,100486.14
2019-03-27T04:42:56.209Z,100486.62
2019-03-27T04:45:24.586Z,100495.39
2019-03-27T04:47:52.982Z,100489.73
2019-03-27T04:50:21.369Z,100490.59
2019-03-27T04:52:49.749Z,100494.59
2019-03-27T04:55:18.662Z,100496.39
2019-03-27T04:57:47.059Z,100496.78
2019-03-27T05:00:15.841Z,100501.61
2019-03-27T05:02:44.236Z,100499.42
2019-03-27T05:05:12.682Z,100506.02
2019-03-27T05:07:41.085Z,100506.47
2019-03-27T05:10:09.531Z,100496.39
2019-03-27T05:12:38.840Z,100506.54
2019-03-27T05:15:08.982Z,100504.84
2019-03-27T05:17:45.943Z,100509.59
2019-03-27T05:20:08.073Z,100509.59
2019-03-27T05:22:36.467Z,100508.73
2019-03-27T05:25:05.387Z,100514.46
2019-03-27T05:27:36.323Z,100513.56
2019-03-27T05:30:05.492Z,100517.03
2019-03-27T05:32:33.884Z,100514.39
2019-03-27T05:35:02.257Z,100502.65
2019-03-27T05:37:30.648Z,100515.33
2019-03-27T05:39:59.021Z,100518.04
2019-03-27T05:42:27.413Z,100519.36
2019-03-27T05:44:55.863Z,100517.31
2019-03-27T05:47:24.246Z,100532.28
2019-03-27T05:49:52.627Z,100528.39
2019-03-27T05:52:21.014Z,100529.64
2019-03-27T05:54:49.412Z,100538.43
2019-03-27T05:57:17.784Z,100545.48
2019-03-27T05:59:46.301Z,100545.48
2019-03-27T06:02:14.689Z,100554.20
2019-03-27T06:04:43.088Z,100565.15
2019-03-27T06:07:11.464Z,100563.45
2019-03-27T06:09:39.856Z,100564.48
2019-03-27T06:12:08.236Z,100563.58
2019-03-27T06:14:36.616Z,100566.67
2019-03-27T06:17:05.000Z,100573.34
2019-03-27T06:19:33.397Z,100570.63
2019-03-27T06:22:01.773Z,100562.64
2019-03-27T06:24:30.165Z,100557.50
2019-03-27T06:26:58.538Z,100555.14
2019-03-27T06:29:26.936Z,100555.01
2019-03-27T06:31:55.309Z,100544.76
2019-03-27T06:34:23.712Z,100548.69
2019-03-27T06:36:52.090Z,100551.71
2019-03-27T06:39:20.485Z,100558.83
2019-03-27T06:41:49.729Z,100565.05
2019-03-27T06:44:18.129Z,100571.52
2019-03-27T06:46:46.515Z,100571.52
2019-03-27T06:49:14.900Z,100564.91
2019-03-27T06:51:43.279Z,100576.86
2019-03-27T06:54:11.722Z,100586.56
2019-03-27T06:56:40.098Z,100580.89
2019-03-27T06:59:08.660Z,100584.05
2019-03-27T07:01:37.035Z,100584.05
2019-03-27T07:04:10.710Z,100581.28
2019-03-27T07:06:35.528Z,100589.06
2019-03-27T07:09:05.409Z,100580.48
2019-03-27T07:11:33.809Z,100584.80
2019-03-27T07:14:02.184Z,100584.73
2019-03-27T07:16:30.576Z,100591.27
2019-03-27T07:18:58.953Z,100592.59
2019-03-27T07:21:27.343Z,100597.80
2019-03-27T07:23:55.718Z,100605.59
2019-03-27T07:26:24.106Z,100616.58
2019-03-27T07:28:52.487Z,100614.52
2019-03-27T07:31:20.881Z,100611.02
2019-03-27T07:33:49.969Z,100611.88
2019-03-27T07:36:18.358Z,100613.58
2019-03-27T07:38:46.738Z,100612.55
2019-03-27T07:41:15.131Z,100619.02
2019-03-27T07:43:43.511Z,100616.30
2019-03-27T07:46:11.902Z,100613.08
2019-03-27T07:48:52.908Z,100616.06
2019-03-27T07:51:10.389Z,100616.00
2019-03-27T07:53:38.769Z,100616.66
2019-03-27T07:56:07.155Z,100611.55
2019-03-27T07:58:35.534Z,100616.04
2019-03-27T08:01:03.930Z,100617.67
2019-03-27T08:03:32.306Z,100624.17
2019-03-27T08:06:00.686Z,100629.25
2019-03-27T08:08:29.077Z,100626.95
2019-03-27T08:10:57.453Z,100629.84
2019-03-27T08:13:25.842Z,100618.67
2019-03-27T08:15:54.219Z,100618.95
2019-03-27T08:18:22.615Z,100626.31
2019-03-27T08:20:50.994Z,100626.28
2019-03-27T08:23:20.244Z,100625.69
2019-03-27T08:25:48.625Z,100620.64
2019-03-27T08:28:17.015Z,100622.16
2019-03-27T08:30:45.395Z,100626.25
2019-03-27T08:33:13.787Z,100626.83
2019-03-27T08:35:42.165Z,100623.89
2019-03-27T08:38:10.560Z,100634.56
2019-03-27T08:40:38.939Z,100631.65
2019-03-27T08:43:20.283Z,100629.58
2019-03-27T08:45:37.428Z,100628.82
2019-03-27T08:48:05.885Z,100637.74
2019-03-27T08:50:34.270Z,100634.88
2019-03-27T08:53:02.660Z,100638.47
2019-03-27T08:55:31.104Z,100634.86
2019-03-27T08:57:59.502Z,100635.75
2019-03-27T09:00:48.297Z,100646.91
2019-03-27T09:03:17.326Z,100651.72
2019-03-27T09:05:45.779Z,100648.77
2019-03-27T09:08:14.306Z,100652.59
2019-03-27T09:10:42.691Z,100656.28
2019-03-27T09:13:11.088Z,100660.77
2019-03-27T09:15:39.461Z,100659.92
2019-03-27T09:18:07.852Z,100662.66
2019-03-27T09:20:36.232Z,100653.48
2019-03-27T09:23:04.790Z,100652.55
2019-03-27T09:25:33.170Z,100647.63
2019-03-27T09:28:01.561Z,100654.14
2019-03-27T09:30:29.938Z,100652.59
2019-03-27T09:32:58.325Z,100653.20
2019-03-27T09:35:26.713Z,100654.45
2019-03-27T09:37:55.098Z,100644.80
2019-03-27T09:40:23.598Z,100650.45
2019-03-27T09:42:51.931Z,100654.19
2019-03-27T09:45:21.137Z,100658.73
2019-03-27T09:47:49.513Z,100659.55
2019-03-27T09:50:17.903Z,100665.17
2019-03-27T09:52:46.283Z,100662.35
2019-03-27T09:55:14.695Z,100660.39
2019-03-27T09:57:43.076Z,100662.34
2019-03-27T10:00:12.002Z,100660.25
2019-03-27T10:02:40.387Z,100656.81
2019-03-27T10:05:09.016Z,100663.44
2019-03-27T10:07:37.401Z,100655.16
2019-03-27T10:10:06.244Z,100657.02
2019-03-27T10:12:34.613Z,100658.05
2019-03-27T10:15:03.375Z,100662.09
2019-03-27T10:17:31.747Z,100665.20
2019-03-27T10:20:03.827Z,100663.00
2019-03-27T10:22:30.225Z,100670.58
2019-03-27T10:24:58.611Z,100668.88
2019-03-27T10:27:26.985Z,100675.49
2019-03-27T10:29:55.379Z,100673.68
2019-03-27T10:32:23.753Z,100673.80
2019-03-27T10:34:52.144Z,100671.69
2019-03-27T10:37:21.334Z,100665.14
2019-03-27T10:39:49.752Z,100671.39
2019-03-27T10:42:18.117Z,100672.30
2019-03-27T10:44:46.517Z,100675.44
2019-03-27T10:47:14.901Z,100668.41
2019-03-27T10:49:43.278Z,100671.92
2019-03-27T10:52:11.740Z,100680.77
2019-03-27T10:54:40.113Z,100676.42
2019-03-27T10:57:08.514Z,100673.85
2019-03-27T10:59:36.900Z,100676.58
2019-03-27T11:02:05.292Z,100680.55
2019-03-27T11:04:33.674Z,100682.33
2019-03-27T11:07:02.063Z,100682.41
2019-03-27T11:09:30.439Z,100683.35
2019-03-27T11:11:58.825Z,100677.19
2019-03-27T11:14:37.377Z,100679.38
2019-03-27T11:16:57.314Z,100672.34
2019-03-27T11:19:25.706Z,100673.59
2019-03-27T11:21:54.096Z,100671.73
2019-03-27T11:24:22.472Z,100676.27
2019-03-27T11:26:51.698Z,100670.04
2019-03-27T11:29:20.073Z,100661.06
2019-03-27T11:31:48.462Z,100665.45
2019-03-27T11:34:16.865Z,100658.53
2019-03-27T11:36:45.231Z,100646.05
2019-03-27T11:39:13.676Z,100653.06
2019-03-27T11:41:42.073Z,100648.89
2019-03-27T11:44:12.737Z,100647.05
2019-03-27T11:46:40.612Z,100648.91
2019-03-27T11:49:08.993Z,100650.98
2019-03-27T11:51:37.386Z,100650.66
2019-03-27T11:54:05.762Z,100650.41
2019-03-27T11:56:34.143Z,100652.09
2019-03-27T11:59:02.539Z,100657.98
2019-03-27T12:01:40.569Z,100651.95
2019-03-27T12:04:01.031Z,100662.04
2019-03-27T12:06:29.411Z,100659.44
2019-03-27T12:08:57.793Z,100665.03
2019-03-27T12:11:26.180Z,100656.08
2019-03-27T12:13:54.573Z,100659.56
2019-03-27T12:16:22.947Z,100663.86
2019-03-27T12:18:52.093Z,100664.18
2019-03-27T12:21:20.471Z,100659.95
2019-03-27T12:23:48.865Z,100663.14
2019-03-27T12:26:17.237Z,100662.35
2019-03-27T12:28:45.626Z,100663.75
2019-03-27T12:31:14.003Z,100661.89
2019-03-27T12:33:42.397Z,100659.16
2019-03-27T12:36:10.774Z,100660.95
2019-03-27T12:38:39.163Z,100660.82
2019-03-27T12:41:07.537Z,100658.17
2019-03-27T12:43:35.925Z,100654.11
2019-03-27T12:46:04.375Z,100650.52
2019-03-27T12:48:32.763Z,100646.00
2019-03-27T12:51:12.054Z,100643.36
2019-03-27T12:53:31.257Z,100641.17
2019-03-27T12:55:59.626Z,100647.72
2019-03-27T12:58:28.013Z,100638.60
2019-03-27T13:00:58.030Z,100634.70
2019-03-27T13:03:26.415Z,100634.87
2019-03-27T13:05:54.791Z,100636.81
2019-03-27T13:08:23.176Z,100635.08
2019-03-27T13:10:52.568Z,100626.29
2019-03-27T13:13:20.949Z,100621.07
2019-03-27T13:15:49.325Z,100625.75
2019-03-27T13:18:17.715Z,100629.39
2019-03-27T13:20:46.093Z,100629.02
2019-03-27T13:23:14.485Z,100627.61
2019-03-27T13:25:42.867Z,100615.52
2019-03-27T13:28:11.261Z,100616.39
2019-03-27T13:30:39.637Z,100628.23
2019-03-27T13:33:08.019Z,100626.42
2019-03-27T13:35:36.398Z,100624.88
2019-03-27T13:38:04.844Z,100629.16
2019-03-27T13:40:33.236Z,100626.05
2019-03-27T13:43:01.616Z,100622.61
2019-03-27T13:45:30.012Z,100619.66
2019-03-27T13:47:58.385Z,100623.23
2019-03-27T13:50:26.845Z,100618.42
2019-03-27T13:52:55.223Z,100616.60
2019-03-27T13:55:23.614Z,100617.09
2019-03-27T13:57:51.999Z,100615.06
2019-03-27T14:00:20.452Z,100613.41
2019-03-27T14:02:48.832Z,100615.27
2019-03-27T14:05:17.483Z,100614.52
2019-03-27T14:07:45.856Z,100617.17
2019-03-27T14:10:15.890Z,100610.55
2019-03-27T14:12:44.272Z,100614.27
2019-03-27T14:15:13.499Z,100618.00
2019-03-27T14:17:41.878Z,100616.37
2019-03-27T14:20:12.410Z,100623.83
2019-03-27T14:22:40.783Z,100623.91
2019-03-27T14:25:10.010Z,100618.08
2019-03-27T14:27:38.458Z,100621.59
2019-03-27T14:30:09.787Z,100622.05
2019-03-27T14:32:38.179Z,100622.29
2019-03-27T14:35:06.915Z,100625.63
2019-03-27T14:37:35.290Z,100621.33
2019-03-27T14:40:05.657Z,100624.52
2019-03-27T14:42:34.048Z,100622.36
2019-03-27T14:45:02.427Z,100620.70
2019-03-27T14:47:30.824Z,100624.34
2019-03-27T14:49:59.202Z,100629.14
2019-03-27T14:52:27.590Z,100630.55
2019-03-27T14:54:55.977Z,100634.59
2019-03-27T14:57:24.375Z,100631.16
2019-03-27T14:59:53.437Z,100627.42
2019-03-27T15:02:21.828Z,100627.05
2019-03-27T15:04:50.432Z,100615.12
2019-03-27T15:07:18.831Z,100623.07
2019-03-27T15:09:47.272Z,100621.83
2019-03-27T15:12:15.665Z,100625.72
2019-03-27T15:14:44.047Z,100619.02
2019-03-27T15:17:12.437Z,100622.91
2019-03-27T15:19:40.817Z,100619.48
2019-03-27T15:22:21.768Z,100619.48
2019-03-27T15:24:39.387Z,100616.45
2019-03-27T15:27:07.779Z,100616.91
2019-03-27T15:29:36.164Z,100613.92
2019-03-27T15:32:04.632Z,100615.73
2019-03-27T15:34:33.011Z,100613.02
2019-03-27T15:37:01.404Z,100617.36
2019-03-27T15:39:29.899Z,100614.34
2019-03-27T15:41:58.251Z,100617.36
2019-03-27T15:44:26.705Z,100614.71
2019-03-27T15:46:55.092Z,100616.11
2019-03-27T15:49:23.729Z,100607.38
2019-03-27T15:51:52.118Z,100613.17
2019-03-27T15:54:20.492Z,100615.81
2019-03-27T15:56:48.884Z,100609.66
2019-03-27T15:59:17.274Z,100610.44
2019-03-27T16:01:45.640Z,100611.27
2019-03-27T16:04:14.030Z,100611.27
2019-03-27T16:06:42.427Z,100608.17
2019-03-27T16:09:12.459Z,100610.81
2019-03-27T16:11:40.861Z,100610.97
2019-03-27T16:14:09.269Z,100613.24
2019-03-27T16:16:37.672Z,100604.43
2019-03-27T16:19:06.061Z,100613.70
2019-03-27T16:21:37.565Z,100617.34
2019-03-27T16:24:06.548Z,100613.45
2019-03-27T16:26:34.832Z,100614.77
2019-03-27T16:29:03.233Z,100619.38
2019-03-27T16:31:31.600Z,100614.34
2019-03-27T16:33:59.991Z,100610.97
2019-03-27T16:36:28.393Z,100615.96
2019-03-27T16:38:57.620Z,100618.54
2019-03-27T16:41:25.999Z,100621.36
2019-03-27T16:43:54.392Z,100625.84
2019-03-27T16:46:22.780Z,100624.98
2019-03-27T16:48:51.172Z,100619.05
2019-03-27T16:51:19.549Z,100619.58
2019-03-27T16:53:47.948Z,100619.73
2019-03-27T16:56:16.331Z,100618.48
2019-03-27T16:58:44.722Z,100617.70
2019-03-27T17:01:13.093Z,100617.77
2019-03-27T17:03:41.488Z,100621.82
2019-03-27T17:06:10.013Z,100622.42
2019-03-27T17:08:38.402Z,100624.66
2019-03-27T17:11:06.794Z,100630.48
2019-03-27T17:13:35.194Z,100627.84
2019-03-27T17:16:03.574Z,100632.83
2019-03-27T17:18:31.955Z,100631.58
2019-03-27T17:21:00.365Z,100636.08
2019-03-27T17:23:28.744Z,100637.94
2019-03-27T17:25:57.303Z,100639.33
2019-03-27T17:28:25.791Z,100638.09
2019-03-27T17:30:54.570Z,100646.97
2019-03-27T17:33:23.183Z,100637.82
2019-03-27T17:35:51.569Z,100638.77
2019-03-27T17:38:19.957Z,100645.53
2019-03-27T17:40:48.415Z,100644.28
2019-03-27T17:43:16.978Z,100640.39
2019-03-27T17:45:45.452Z,100638.54
2019-03-27T17:48:13.853Z,100641.86
2019-03-27T17:50:42.264Z,100643.34
2019-03-27T17:53:10.648Z,100639.89
2019-03-27T17:55:39.112Z,100636.94
2019-03-27T17:58:07.738Z,100645.86
2019-03-27T18:00:46.675Z,100651.23
2019-03-27T18:03:15.057Z,100648.66
2019-03-27T18:05:43.450Z,100654.74
2019-03-27T18:08:12.700Z,100636.28
2019-03-27T18:10:41.093Z,100650.62
2019-03-27T18:13:09.472Z,100652.99
2019-03-27T18:15:37.869Z,100651.36
2019-03-27T18:18:07.165Z,100650.50
2019-03-27T18:20:35.565Z,100648.30
2019-03-27T18:23:04.006Z,100648.38
2019-03-27T18:25:32.696Z,100646.74
2019-03-27T18:28:01.188Z,100648.90
2019-03-27T18:30:29.575Z,100653.42
2019-03-27T18:32:58.029Z,100649.05
2019-03-27T18:35:26.411Z,100650.44
2019-03-27T18:37:54.945Z,100650.44
2019-03-27T18:40:23.329Z,100659.38
2019-03-27T18:42:51.725Z,100655.88
2019-03-27T18:45:20.514Z,100661.69
2019-03-27T18:47:49.073Z,100661.16
2019-03-27T18:50:17.527Z,100664.12
2019-03-27T18:52:46.006Z,100674.17
2019-03-27T18:55:25.754Z,100678.07
2019-03-27T18:57:44.771Z,100674.59
2019-03-27T19:00:13.629Z,100682.17
2019-03-27T19:02:42.130Z,100690.98
2019-03-27T19:05:10.754Z,100694.08
2019-03-27T19:07:39.151Z,100699.38
2019-03-27T19:10:07.788Z,100703.34
2019-03-27T19:12:36.183Z,100702.54
2019-03-27T19:15:09.452Z,100707.00
2019-03-27T19:17:37.946Z,100705.19
2019-03-27T19:20:07.126Z,100714.44
2019-03-27T19:22:35.502Z,100713.92
2019-03-27T19:25:05.985Z,100717.50
2019-03-27T19:27:34.449Z,100719.28
2019-03-27T19:30:03.104Z,100722.00
2019-03-27T19:32:31.512Z,100722.06
2019-03-27T19:34:59.895Z,100726.17
2019-03-27T19:37:28.289Z,100720.08
2019-03-27T19:39:56.685Z,100724.95
2019-03-27T19:42:25.462Z,100727.22
2019-03-27T19:44:53.857Z,100721.55
2019-03-27T19:47:22.250Z,100717.16
2019-03-27T19:49:50.638Z,100718.55
2019-03-27T19:52:19.025Z,100712.46
2019-03-27T19:54:47.422Z,100721.13
2019-03-27T19:57:15.804Z,100719.88
2019-03-27T19:59:44.195Z,100725.55
2019-03-27T20:02:12.678Z,100716.30
2019-03-27T20:04:41.083Z,100718.16
2019-03-27T20:07:09.576Z,100721.20
2019-03-27T20:09:38.124Z,100715.04
2019-03-27T20:12:06.595Z,100721.58
2019-03-27T20:14:35.116Z,100722.97
2019-03-27T20:17:03.509Z,100722.13
2019-03-27T20:19:31.982Z,100722.13
2019-03-27T20:22:00.356Z,100721.27
2019-03-27T20:24:40.400Z,100722.97
2019-03-27T20:26:58.859Z,100730.91
2019-03-27T20:29:27.254Z,100726.62
2019-03-27T20:31:55.917Z,100728.40
2019-03-27T20:34:24.302Z,100730.59
2019-03-27T20:36:52.682Z,100735.46
2019-03-27T20:39:21.084Z,100735.95
2019-03-27T20:41:49.474Z,100734.80
2019-03-27T20:44:17.945Z,100729.13
2019-03-27T20:46:46.475Z,100732.22
2019-03-27T20:49:14.873Z,100730.09
2019-03-27T20:51:43.328Z,100727.27
2019-03-27T20:54:11.726Z,100731.76
2019-03-27T20:56:40.162Z,100731.83
2019-03-27T20:59:08.556Z,100736.24
2019-03-27T21:01:36.940Z,100734.47
2019-03-27T21:04:05.337Z,100735.44
2019-03-27T21:06:33.720Z,100729.70
2019-03-27T21:09:02.113Z,100732.48
2019-03-27T21:11:30.493Z,100732.06
2019-03-27T21:13:58.892Z,100735.19
2019-03-27T21:16:27.267Z,100733.06
2019-03-27T21:18:56.383Z,100734.84
2019-03-27T21:21:24.768Z,100732.20
2019-03-27T21:23:53.143Z,100735.77
2019-03-27T21:26:21.537Z,100737.55
2019-03-27T21:28:50.035Z,100731.87
2019-03-27T21:31:18.398Z,100732.71
2019-03-27T21:33:46.778Z,100746.02
2019-03-27T21:36:15.166Z,100737.63
2019-03-27T21:38:43.545Z,100734.70
2019-03-27T21:41:11.956Z,100734.45
2019-03-27T21:43:40.329Z,100730.94
2019-03-27T21:46:08.715Z,100733.58
2019-03-27T21:48:37.094Z,100735.91
2019-03-27T21:51:05.504Z,100735.04
2019-03-27T21:53:33.887Z,100732.53
2019-03-27T21:56:02.281Z,100737.33
2019-03-27T21:58:30.668Z,100743.10
2019-03-27T22:01:01.415Z,100732.11
2019-03-27T22:03:29.160Z,100736.59
2019-03-27T22:05:57.554Z,100740.48
2019-03-27T22:08:26.771Z,100743.55
2019-03-27T22:10:55.159Z,100747.09
2019-03-27T22:13:23.626Z,100747.58
2019-03-27T22:15:52.009Z,100742.75
2019-03-27T22:18:20.386Z,100745.39
2019-03-27T22:20:48.781Z,100750.67
2019-03-27T22:23:17.158Z,100752.45
2019-03-27T22:25:45.550Z,100754.64
2019-03-27T22:28:13.934Z,100752.94
2019-03-27T22:30:42.333Z,100755.58
2019-03-27T22:33:10.705Z,100755.09
2019-03-27T22:35:39.098Z,100755.16
2019-03-27T22:38:07.474Z,100757.80
2019-03-27T22:40:35.869Z,100756.02
2019-03-27T22:43:04.317Z,100756.09
2019-03-27T22:45:32.730Z,100754.32
2019-03-27T22:48:01.122Z,100757.41
2019-03-27T22:50:29.506Z,100758.67
2019-03-27T22:52:57.894Z,100763.56
2019-03-27T22:55:27.132Z,100756.09
2019-03-27T22:57:55.527Z,100762.25
2019-03-27T23:00:25.541Z,100764.89
2019-03-27T23:02:53.924Z,100768.44
2019-03-27T23:05:22.304Z,100771.98
2019-03-27T23:07:50.689Z,100767.59
2019-03-27T23:10:19.069Z,100768.08
2019-03-27T23:12:47.460Z,100770.23
2019-03-27T23:15:15.833Z,100772.87
2019-03-27T23:17:44.223Z,100773.75
2019-03-27T23:20:12.853Z,100774.20
2019-03-27T23:22:41.243Z,100771.17
2019-03-27T23:25:09.796Z,100772.87
2019-03-27T23:27:38.170Z,100775.59
2019-03-27T23:30:08.988Z,100776.01
2019-03-27T23:32:37.385Z,100780.88
2019-03-27T23:35:07.705Z,100773.01
2019-03-27T23:37:36.268Z,100773.43
2019-03-27T23:40:06.486Z,100771.75
2019-03-27T23:42:34.885Z,100769.50
2019-03-27T23:45:04.013Z,100770.44
2019-03-27T23:47:32.404Z,100766.02
2019-03-27T23:50:00.775Z,100773.95
2019-03-27T23:52:29.159Z,100773.08
2019-03-27T23:54:57.711Z,100770.05
2019-03-27T23:57:26.104Z,100765.60
2019-03-27T23:59:54.480Z,100762.13
